sensor_id;sensor_type;location;lat;lon;timestamp;temperature;humidity
26081;DHT22;13991;51.174;4.438;2023-05-20T00:00:06;16.10;99.90
26081;DHT22;13991;51.174;4.438;2023-05-20T00:02:32;16.10;99.90
26081;DHT22;13991;51.174;4.438;2023-05-20T00:04:58;16.00;99.90
26081;DHT22;13991;51.174;4.438;2023-05-20T00:07:23;16.00;99.90
26081;DHT22;13991;51.174;4.438;2023-05-20T00:09:49;15.90;99.90
26081;DHT22;13991;51.174;4.438;2023-05-20T00:12:15;15.80;99.90
26081;DHT22;13991;51.174;4.438;2023-05-20T00:14:41;15.70;99.90
26081;DHT22;13991;51.174;4.438;2023-05-20T00:17:07;15.70;99.90
26081;DHT22;13991;51.174;4.438;2023-05-20T00:19:32;15.60;99.90
26081;DHT22;13991;51.174;4.438;2023-05-20T00:21:58;15.50;99.90
26081;DHT22;13991;51.174;4.438;2023-05-20T00:24:24;15.50;99.90
26081;DHT22;13991;51.174;4.438;2023-05-20T00:26:50;15.50;99.90
26081;DHT22;13991;51.174;4.438;2023-05-20T00:29:15;15.50;99.90
26081;DHT22;13991;51.174;4.438;2023-05-20T00:31:41;15.50;99.90
26081;DHT22;13991;51.174;4.438;2023-05-20T00:34:07;15.40;99.90
26081;DHT22;13991;51.174;4.438;2023-05-20T00:36:34;15.50;99.90
26081;DHT22;13991;51.174;4.438;2023-05-20T00:39:00;15.50;99.90
26081;DHT22;13991;51.174;4.438;2023-05-20T00:41:26;15.40;99.90
26081;DHT22;13991;51.174;4.438;2023-05-20T00:43:55;15.40;99.90
26081;DHT22;13991;51.174;4.438;2023-05-20T00:46:25;15.40;99.90
26081;DHT22;13991;51.174;4.438;2023-05-20T00:48:52;15.50;99.90
26081;DHT22;13991;51.174;4.438;2023-05-20T00:51:19;15.50;99.90
26081;DHT22;13991;51.174;4.438;2023-05-20T00:53:45;15.40;99.90
26081;DHT22;13991;51.174;4.438;2023-05-20T00:56:11;15.30;99.90
26081;DHT22;13991;51.174;4.438;2023-05-20T00:58:37;15.30;99.90
26081;DHT22;13991;51.174;4.438;2023-05-20T01:01:04;15.30;99.90
26081;DHT22;13991;51.174;4.438;2023-05-20T01:03:30;15.30;99.90
26081;DHT22;13991;51.174;4.438;2023-05-20T01:05:56;15.30;99.90
26081;DHT22;13991;51.174;4.438;2023-05-20T01:08:23;15.30;99.90
26081;DHT22;13991;51.174;4.438;2023-05-20T01:11:01;15.20;99.90
26081;DHT22;13991;51.174;4.438;2023-05-20T01:13:33;15.20;99.90
26081;DHT22;13991;51.174;4.438;2023-05-20T01:16:02;15.20;99.90
26081;DHT22;13991;51.174;4.438;2023-05-20T01:18:29;15.10;99.90
26081;DHT22;13991;51.174;4.438;2023-05-20T01:20:58;14.90;99.90
26081;DHT22;13991;51.174;4.438;2023-05-20T01:23:37;15.00;99.90
26081;DHT22;13991;51.174;4.438;2023-05-20T01:26:04;15.00;99.90
26081;DHT22;13991;51.174;4.438;2023-05-20T01:28:34;14.90;99.90
26081;DHT22;13991;51.174;4.438;2023-05-20T01:31:02;14.90;99.90
26081;DHT22;13991;51.174;4.438;2023-05-20T01:33:30;14.90;99.90
26081;DHT22;13991;51.174;4.438;2023-05-20T01:35:57;14.90;99.90
26081;DHT22;13991;51.174;4.438;2023-05-20T01:38:24;15.00;99.90
26081;DHT22;13991;51.174;4.438;2023-05-20T01:40:51;15.00;99.90
26081;DHT22;13991;51.174;4.438;2023-05-20T01:43:18;15.00;99.90
26081;DHT22;13991;51.174;4.438;2023-05-20T01:45:44;14.90;99.90
26081;DHT22;13991;51.174;4.438;2023-05-20T01:48:10;15.00;99.90
26081;DHT22;13991;51.174;4.438;2023-05-20T01:50:37;14.90;99.90
26081;DHT22;13991;51.174;4.438;2023-05-20T01:53:03;14.80;99.90
26081;DHT22;13991;51.174;4.438;2023-05-20T01:55:29;14.80;99.90
26081;DHT22;13991;51.174;4.438;2023-05-20T01:57:54;14.70;99.90
26081;DHT22;13991;51.174;4.438;2023-05-20T02:00:20;14.80;99.90
26081;DHT22;13991;51.174;4.438;2023-05-20T02:02:46;14.70;99.90
26081;DHT22;13991;51.174;4.438;2023-05-20T02:05:12;14.70;99.90
26081;DHT22;13991;51.174;4.438;2023-05-20T02:07:37;14.70;99.90
26081;DHT22;13991;51.174;4.438;2023-05-20T02:10:04;14.70;99.90
26081;DHT22;13991;51.174;4.438;2023-05-20T02:12:29;14.70;99.90
26081;DHT22;13991;51.174;4.438;2023-05-20T02:14:56;14.60;99.90
26081;DHT22;13991;51.174;4.438;2023-05-20T02:17:22;14.60;99.90
26081;DHT22;13991;51.174;4.438;2023-05-20T02:19:47;14.60;99.90
26081;DHT22;13991;51.174;4.438;2023-05-20T02:22:14;14.60;99.90
26081;DHT22;13991;51.174;4.438;2023-05-20T02:24:40;14.60;99.90
26081;DHT22;13991;51.174;4.438;2023-05-20T02:27:08;14.50;99.90
26081;DHT22;13991;51.174;4.438;2023-05-20T02:29:34;14.50;99.90
26081;DHT22;13991;51.174;4.438;2023-05-20T02:32:00;14.50;99.90
26081;DHT22;13991;51.174;4.438;2023-05-20T02:34:27;14.50;99.90
26081;DHT22;13991;51.174;4.438;2023-05-20T02:36:54;14.40;99.90
26081;DHT22;13991;51.174;4.438;2023-05-20T02:39:20;14.40;99.90
26081;DHT22;13991;51.174;4.438;2023-05-20T02:41:46;14.30;99.90
26081;DHT22;13991;51.174;4.438;2023-05-20T02:44:12;14.40;99.90
26081;DHT22;13991;51.174;4.438;2023-05-20T02:46:38;14.40;99.90
26081;DHT22;13991;51.174;4.438;2023-05-20T02:49:04;14.20;99.90
26081;DHT22;13991;51.174;4.438;2023-05-20T02:51:29;14.30;99.90
26081;DHT22;13991;51.174;4.438;2023-05-20T02:54:01;14.10;99.90
26081;DHT22;13991;51.174;4.438;2023-05-20T02:56:26;14.20;99.90
26081;DHT22;13991;51.174;4.438;2023-05-20T02:58:54;14.30;99.90
26081;DHT22;13991;51.174;4.438;2023-05-20T03:01:19;14.30;99.90
26081;DHT22;13991;51.174;4.438;2023-05-20T03:03:45;14.30;99.90
26081;DHT22;13991;51.174;4.438;2023-05-20T03:06:11;14.30;99.90
26081;DHT22;13991;51.174;4.438;2023-05-20T03:08:37;14.30;99.90
26081;DHT22;13991;51.174;4.438;2023-05-20T03:11:04;14.30;99.90
26081;DHT22;13991;51.174;4.438;2023-05-20T03:13:29;14.30;99.90
26081;DHT22;13991;51.174;4.438;2023-05-20T03:15:55;14.30;99.90
26081;DHT22;13991;51.174;4.438;2023-05-20T03:18:21;14.30;99.90
26081;DHT22;13991;51.174;4.438;2023-05-20T03:20:46;14.30;99.90
26081;DHT22;13991;51.174;4.438;2023-05-20T03:23:12;14.30;99.90
26081;DHT22;13991;51.174;4.438;2023-05-20T03:25:39;14.10;99.90
26081;DHT22;13991;51.174;4.438;2023-05-20T03:28:05;14.10;99.90
26081;DHT22;13991;51.174;4.438;2023-05-20T03:30:31;14.10;99.90
26081;DHT22;13991;51.174;4.438;2023-05-20T03:32:57;14.10;99.90
26081;DHT22;13991;51.174;4.438;2023-05-20T03:35:24;13.90;99.90
26081;DHT22;13991;51.174;4.438;2023-05-20T03:37:50;14.00;99.90
26081;DHT22;13991;51.174;4.438;2023-05-20T03:40:17;13.90;99.90
26081;DHT22;13991;51.174;4.438;2023-05-20T03:42:45;13.90;99.90
26081;DHT22;13991;51.174;4.438;2023-05-20T03:45:10;14.00;99.90
26081;DHT22;13991;51.174;4.438;2023-05-20T03:47:36;13.90;99.90
26081;DHT22;13991;51.174;4.438;2023-05-20T03:50:02;13.90;99.90
26081;DHT22;13991;51.174;4.438;2023-05-20T03:52:27;13.90;99.90
26081;DHT22;13991;51.174;4.438;2023-05-20T03:54:53;13.90;99.90
26081;DHT22;13991;51.174;4.438;2023-05-20T03:57:19;13.90;99.90
26081;DHT22;13991;51.174;4.438;2023-05-20T03:59:44;13.90;99.90
26081;DHT22;13991;51.174;4.438;2023-05-20T04:02:10;13.90;99.90
26081;DHT22;13991;51.174;4.438;2023-05-20T04:04:36;13.90;99.90
26081;DHT22;13991;51.174;4.438;2023-05-20T04:07:02;13.90;99.90
26081;DHT22;13991;51.174;4.438;2023-05-20T04:09:29;13.90;99.90
26081;DHT22;13991;51.174;4.438;2023-05-20T04:11:55;13.90;99.90
26081;DHT22;13991;51.174;4.438;2023-05-20T04:14:21;13.80;99.90
26081;DHT22;13991;51.174;4.438;2023-05-20T04:16:47;13.70;99.90
26081;DHT22;13991;51.174;4.438;2023-05-20T04:19:14;13.70;99.90
26081;DHT22;13991;51.174;4.438;2023-05-20T04:21:42;13.70;99.90
26081;DHT22;13991;51.174;4.438;2023-05-20T04:24:07;13.60;99.90
26081;DHT22;13991;51.174;4.438;2023-05-20T04:26:33;13.60;99.90
26081;DHT22;13991;51.174;4.438;2023-05-20T04:29:00;13.60;99.90
26081;DHT22;13991;51.174;4.438;2023-05-20T04:31:28;13.70;99.90
26081;DHT22;13991;51.174;4.438;2023-05-20T04:33:55;13.80;99.90
26081;DHT22;13991;51.174;4.438;2023-05-20T04:36:21;13.90;99.90
26081;DHT22;13991;51.174;4.438;2023-05-20T04:38:47;13.90;99.90
26081;DHT22;13991;51.174;4.438;2023-05-20T04:41:14;13.90;99.90
26081;DHT22;13991;51.174;4.438;2023-05-20T04:43:41;13.90;99.90
26081;DHT22;13991;51.174;4.438;2023-05-20T04:46:07;13.90;99.90
26081;DHT22;13991;51.174;4.438;2023-05-20T04:48:33;13.90;99.90
26081;DHT22;13991;51.174;4.438;2023-05-20T04:50:59;13.90;99.90
26081;DHT22;13991;51.174;4.438;2023-05-20T04:53:24;13.80;99.90
26081;DHT22;13991;51.174;4.438;2023-05-20T04:55:54;13.90;99.90
26081;DHT22;13991;51.174;4.438;2023-05-20T04:58:21;13.80;99.90
26081;DHT22;13991;51.174;4.438;2023-05-20T05:00:49;13.90;99.90
26081;DHT22;13991;51.174;4.438;2023-05-20T05:03:16;13.90;99.90
26081;DHT22;13991;51.174;4.438;2023-05-20T05:05:42;14.00;99.90
26081;DHT22;13991;51.174;4.438;2023-05-20T05:08:08;14.10;99.90
26081;DHT22;13991;51.174;4.438;2023-05-20T05:10:37;14.00;99.90
26081;DHT22;13991;51.174;4.438;2023-05-20T05:13:02;14.10;99.90
26081;DHT22;13991;51.174;4.438;2023-05-20T05:15:28;14.20;99.90
26081;DHT22;13991;51.174;4.438;2023-05-20T05:17:54;14.30;99.90
26081;DHT22;13991;51.174;4.438;2023-05-20T05:20:20;14.30;99.90
26081;DHT22;13991;51.174;4.438;2023-05-20T05:22:46;14.40;99.90
26081;DHT22;13991;51.174;4.438;2023-05-20T05:25:12;14.40;99.90
26081;DHT22;13991;51.174;4.438;2023-05-20T05:27:38;14.50;99.90
26081;DHT22;13991;51.174;4.438;2023-05-20T05:30:05;14.50;99.90
26081;DHT22;13991;51.174;4.438;2023-05-20T05:32:31;14.50;99.90
26081;DHT22;13991;51.174;4.438;2023-05-20T05:34:57;14.50;99.90
26081;DHT22;13991;51.174;4.438;2023-05-20T05:37:23;14.50;99.90
26081;DHT22;13991;51.174;4.438;2023-05-20T05:39:48;14.60;99.90
26081;DHT22;13991;51.174;4.438;2023-05-20T05:42:14;14.70;99.90
26081;DHT22;13991;51.174;4.438;2023-05-20T05:44:40;14.80;99.90
26081;DHT22;13991;51.174;4.438;2023-05-20T05:47:06;14.80;99.90
26081;DHT22;13991;51.174;4.438;2023-05-20T05:49:32;14.80;99.90
26081;DHT22;13991;51.174;4.438;2023-05-20T05:51:58;14.70;99.90
26081;DHT22;13991;51.174;4.438;2023-05-20T05:54:24;14.80;99.90
26081;DHT22;13991;51.174;4.438;2023-05-20T05:56:53;14.90;99.90
26081;DHT22;13991;51.174;4.438;2023-05-20T05:59:21;15.00;99.90
26081;DHT22;13991;51.174;4.438;2023-05-20T06:01:46;14.90;99.90
26081;DHT22;13991;51.174;4.438;2023-05-20T06:04:12;14.90;99.90
26081;DHT22;13991;51.174;4.438;2023-05-20T06:06:39;15.00;99.90
26081;DHT22;13991;51.174;4.438;2023-05-20T06:09:05;15.00;99.90
26081;DHT22;13991;51.174;4.438;2023-05-20T06:11:31;15.10;99.90
26081;DHT22;13991;51.174;4.438;2023-05-20T06:13:57;15.20;99.90
26081;DHT22;13991;51.174;4.438;2023-05-20T06:16:23;15.40;99.90
26081;DHT22;13991;51.174;4.438;2023-05-20T06:18:48;15.40;99.90
26081;DHT22;13991;51.174;4.438;2023-05-20T06:21:15;15.40;99.90
26081;DHT22;13991;51.174;4.438;2023-05-20T06:23:40;15.50;99.90
26081;DHT22;13991;51.174;4.438;2023-05-20T06:26:09;15.60;99.90
26081;DHT22;13991;51.174;4.438;2023-05-20T06:28:35;15.70;99.90
26081;DHT22;13991;51.174;4.438;2023-05-20T06:31:01;15.70;99.90
26081;DHT22;13991;51.174;4.438;2023-05-20T06:33:26;16.10;99.90
26081;DHT22;13991;51.174;4.438;2023-05-20T06:41:25;16.90;99.90
26081;DHT22;13991;51.174;4.438;2023-05-20T06:43:51;17.20;99.90
26081;DHT22;13991;51.174;4.438;2023-05-20T06:46:21;17.70;99.90
26081;DHT22;13991;51.174;4.438;2023-05-20T06:48:47;17.80;99.90
26081;DHT22;13991;51.174;4.438;2023-05-20T06:51:13;17.60;99.90
26081;DHT22;13991;51.174;4.438;2023-05-20T06:53:39;17.50;99.90
26081;DHT22;13991;51.174;4.438;2023-05-20T06:56:06;17.50;99.90
26081;DHT22;13991;51.174;4.438;2023-05-20T06:58:39;17.50;99.90
26081;DHT22;13991;51.174;4.438;2023-05-20T07:01:05;17.40;99.90
26081;DHT22;13991;51.174;4.438;2023-05-20T07:06:04;17.40;99.90
26081;DHT22;13991;51.174;4.438;2023-05-20T07:08:29;17.40;99.90
26081;DHT22;13991;51.174;4.438;2023-05-20T07:10:55;17.40;99.90
26081;DHT22;13991;51.174;4.438;2023-05-20T07:13:21;17.50;99.90
26081;DHT22;13991;51.174;4.438;2023-05-20T07:15:50;17.60;99.90
26081;DHT22;13991;51.174;4.438;2023-05-20T07:18:16;17.60;99.90
26081;DHT22;13991;51.174;4.438;2023-05-20T07:20:43;17.60;99.90
26081;DHT22;13991;51.174;4.438;2023-05-20T07:23:09;17.50;99.90
26081;DHT22;13991;51.174;4.438;2023-05-20T07:25:35;17.60;99.90
26081;DHT22;13991;51.174;4.438;2023-05-20T07:28:00;17.70;99.90
26081;DHT22;13991;51.174;4.438;2023-05-20T07:30:26;17.80;99.90
26081;DHT22;13991;51.174;4.438;2023-05-20T07:32:52;17.90;99.90
26081;DHT22;13991;51.174;4.438;2023-05-20T07:35:22;18.00;99.90
26081;DHT22;13991;51.174;4.438;2023-05-20T07:37:50;18.10;99.90
26081;DHT22;13991;51.174;4.438;2023-05-20T07:43:29;18.30;99.90
26081;DHT22;13991;51.174;4.438;2023-05-20T07:45:54;18.50;99.90
26081;DHT22;13991;51.174;4.438;2023-05-20T07:48:20;18.50;99.90
26081;DHT22;13991;51.174;4.438;2023-05-20T07:58:10;18.70;99.90
26081;DHT22;13991;51.174;4.438;2023-05-20T08:04:22;18.70;99.90
26081;DHT22;13991;51.174;4.438;2023-05-20T08:09:34;18.90;99.90
26081;DHT22;13991;51.174;4.438;2023-05-20T08:11:59;18.90;99.90
26081;DHT22;13991;51.174;4.438;2023-05-20T08:14:25;19.00;99.90
26081;DHT22;13991;51.174;4.438;2023-05-20T08:16:54;18.90;99.90
26081;DHT22;13991;51.174;4.438;2023-05-20T08:19:20;19.00;99.90
26081;DHT22;13991;51.174;4.438;2023-05-20T08:21:45;19.00;99.90
26081;DHT22;13991;51.174;4.438;2023-05-20T08:24:11;19.10;99.90
26081;DHT22;13991;51.174;4.438;2023-05-20T08:26:37;19.20;99.90
26081;DHT22;13991;51.174;4.438;2023-05-20T08:29:03;19.30;99.90
26081;DHT22;13991;51.174;4.438;2023-05-20T08:31:28;19.50;99.90
26081;DHT22;13991;51.174;4.438;2023-05-20T08:33:54;19.70;99.90
26081;DHT22;13991;51.174;4.438;2023-05-20T08:36:20;19.70;99.40
26081;DHT22;13991;51.174;4.438;2023-05-20T08:38:46;19.80;98.90
26081;DHT22;13991;51.174;4.438;2023-05-20T08:41:11;19.80;98.30
26081;DHT22;13991;51.174;4.438;2023-05-20T08:43:37;19.80;98.30
26081;DHT22;13991;51.174;4.438;2023-05-20T08:46:03;19.90;97.90
26081;DHT22;13991;51.174;4.438;2023-05-20T08:48:30;20.10;97.60
26081;DHT22;13991;51.174;4.438;2023-05-20T08:50:58;20.00;97.80
26081;DHT22;13991;51.174;4.438;2023-05-20T08:53:25;20.10;97.40
26081;DHT22;13991;51.174;4.438;2023-05-20T08:56:00;20.10;95.80
26081;DHT22;13991;51.174;4.438;2023-05-20T08:58:28;20.10;95.40
26081;DHT22;13991;51.174;4.438;2023-05-20T09:00:54;20.10;95.50
26081;DHT22;13991;51.174;4.438;2023-05-20T09:03:20;20.20;95.70
26081;DHT22;13991;51.174;4.438;2023-05-20T09:05:46;20.20;95.50
26081;DHT22;13991;51.174;4.438;2023-05-20T09:08:12;20.30;95.60
26081;DHT22;13991;51.174;4.438;2023-05-20T09:10:40;20.30;95.50
26081;DHT22;13991;51.174;4.438;2023-05-20T09:13:08;20.40;94.90
26081;DHT22;13991;51.174;4.438;2023-05-20T09:15:34;20.40;94.10
26081;DHT22;13991;51.174;4.438;2023-05-20T09:18:01;20.40;93.70
26081;DHT22;13991;51.174;4.438;2023-05-20T09:20:33;20.40;94.10
26081;DHT22;13991;51.174;4.438;2023-05-20T09:23:00;20.20;93.30
26081;DHT22;13991;51.174;4.438;2023-05-20T09:25:26;20.20;94.00
26081;DHT22;13991;51.174;4.438;2023-05-20T09:27:52;20.10;94.10
26081;DHT22;13991;51.174;4.438;2023-05-20T09:30:19;20.20;94.00
26081;DHT22;13991;51.174;4.438;2023-05-20T09:32:52;20.40;93.80
26081;DHT22;13991;51.174;4.438;2023-05-20T09:35:18;20.50;94.00
26081;DHT22;13991;51.174;4.438;2023-05-20T09:37:45;20.50;93.80
26081;DHT22;13991;51.174;4.438;2023-05-20T09:40:12;20.70;93.80
26081;DHT22;13991;51.174;4.438;2023-05-20T09:42:49;20.80;94.30
26081;DHT22;13991;51.174;4.438;2023-05-20T09:45:15;20.90;93.50
26081;DHT22;13991;51.174;4.438;2023-05-20T09:47:42;20.90;92.80
26081;DHT22;13991;51.174;4.438;2023-05-20T09:50:09;20.90;92.70
26081;DHT22;13991;51.174;4.438;2023-05-20T09:52:36;20.90;92.30
26081;DHT22;13991;51.174;4.438;2023-05-20T09:55:04;21.00;92.20
26081;DHT22;13991;51.174;4.438;2023-05-20T09:57:34;21.00;91.80
26081;DHT22;13991;51.174;4.438;2023-05-20T10:00:04;21.10;92.10
26081;DHT22;13991;51.174;4.438;2023-05-20T10:02:32;21.20;92.60
26081;DHT22;13991;51.174;4.438;2023-05-20T10:05:06;21.30;91.90
26081;DHT22;13991;51.174;4.438;2023-05-20T10:20:49;21.60;90.00
26081;DHT22;13991;51.174;4.438;2023-05-20T10:23:22;21.40;90.50
26081;DHT22;13991;51.174;4.438;2023-05-20T10:25:52;21.40;90.80
26081;DHT22;13991;51.174;4.438;2023-05-20T10:30:55;21.30;90.80
26081;DHT22;13991;51.174;4.438;2023-05-20T10:33:21;21.40;90.40
26081;DHT22;13991;51.174;4.438;2023-05-20T10:35:49;21.60;90.10
26081;DHT22;13991;51.174;4.438;2023-05-20T10:38:16;21.70;89.30
26081;DHT22;13991;51.174;4.438;2023-05-20T10:40:42;21.70;89.00
26081;DHT22;13991;51.174;4.438;2023-05-20T10:43:08;21.50;89.10
26081;DHT22;13991;51.174;4.438;2023-05-20T10:45:49;21.50;88.90
26081;DHT22;13991;51.174;4.438;2023-05-20T10:48:30;21.80;88.80
26081;DHT22;13991;51.174;4.438;2023-05-20T10:50:57;21.90;88.90
26081;DHT22;13991;51.174;4.438;2023-05-20T10:53:26;21.90;88.70
26081;DHT22;13991;51.174;4.438;2023-05-20T10:55:53;21.90;87.30
26081;DHT22;13991;51.174;4.438;2023-05-20T10:58:21;22.10;88.20
26081;DHT22;13991;51.174;4.438;2023-05-20T11:00:48;22.30;87.20
26081;DHT22;13991;51.174;4.438;2023-05-20T11:03:15;22.40;86.10
26081;DHT22;13991;51.174;4.438;2023-05-20T11:05:44;22.40;86.90
26081;DHT22;13991;51.174;4.438;2023-05-20T11:08:11;22.40;86.10
26081;DHT22;13991;51.174;4.438;2023-05-20T11:10:37;22.40;86.00
26081;DHT22;13991;51.174;4.438;2023-05-20T11:13:04;22.50;86.00
26081;DHT22;13991;51.174;4.438;2023-05-20T11:15:31;22.60;85.20
26081;DHT22;13991;51.174;4.438;2023-05-20T11:18:00;22.50;86.20
26081;DHT22;13991;51.174;4.438;2023-05-20T11:20:26;22.50;86.40
26081;DHT22;13991;51.174;4.438;2023-05-20T11:22:53;22.50;86.70
26081;DHT22;13991;51.174;4.438;2023-05-20T11:25:19;22.60;85.90
26081;DHT22;13991;51.174;4.438;2023-05-20T11:27:48;22.70;85.70
26081;DHT22;13991;51.174;4.438;2023-05-20T11:30:14;22.90;85.40
26081;DHT22;13991;51.174;4.438;2023-05-20T11:33:03;23.00;83.90
26081;DHT22;13991;51.174;4.438;2023-05-20T11:35:31;23.10;83.00
26081;DHT22;13991;51.174;4.438;2023-05-20T11:38:06;23.10;84.80
26081;DHT22;13991;51.174;4.438;2023-05-20T11:40:34;23.00;84.10
26081;DHT22;13991;51.174;4.438;2023-05-20T11:43:01;22.90;84.20
26081;DHT22;13991;51.174;4.438;2023-05-20T11:45:41;22.80;85.50
26081;DHT22;13991;51.174;4.438;2023-05-20T11:48:08;22.90;84.70
26081;DHT22;13991;51.174;4.438;2023-05-20T11:50:36;22.90;85.10
26081;DHT22;13991;51.174;4.438;2023-05-20T11:53:08;23.00;84.50
26081;DHT22;13991;51.174;4.438;2023-05-20T11:55:44;23.20;83.40
26081;DHT22;13991;51.174;4.438;2023-05-20T11:58:11;23.10;83.60
26081;DHT22;13991;51.174;4.438;2023-05-20T12:00:37;23.00;83.30
26081;DHT22;13991;51.174;4.438;2023-05-20T12:03:03;23.10;83.30
26081;DHT22;13991;51.174;4.438;2023-05-20T12:05:29;23.10;83.90
26081;DHT22;13991;51.174;4.438;2023-05-20T12:07:55;23.20;83.60
26081;DHT22;13991;51.174;4.438;2023-05-20T12:10:20;23.30;83.20
26081;DHT22;13991;51.174;4.438;2023-05-20T12:12:47;23.40;83.20
26081;DHT22;13991;51.174;4.438;2023-05-20T12:15:12;23.50;83.50
26081;DHT22;13991;51.174;4.438;2023-05-20T12:17:51;23.40;82.80
26081;DHT22;13991;51.174;4.438;2023-05-20T12:20:23;23.50;83.10
26081;DHT22;13991;51.174;4.438;2023-05-20T12:22:49;23.30;82.70
26081;DHT22;13991;51.174;4.438;2023-05-20T12:25:18;23.20;83.90
26081;DHT22;13991;51.174;4.438;2023-05-20T12:27:44;23.30;83.80
26081;DHT22;13991;51.174;4.438;2023-05-20T12:30:20;23.60;83.30
26081;DHT22;13991;51.174;4.438;2023-05-20T12:32:47;23.60;83.40
26081;DHT22;13991;51.174;4.438;2023-05-20T12:35:14;23.70;82.90
26081;DHT22;13991;51.174;4.438;2023-05-20T12:37:41;23.70;82.90
26081;DHT22;13991;51.174;4.438;2023-05-20T12:40:08;23.90;82.00
26081;DHT22;13991;51.174;4.438;2023-05-20T12:42:39;23.60;83.00
26081;DHT22;13991;51.174;4.438;2023-05-20T12:45:07;23.50;83.10
26081;DHT22;13991;51.174;4.438;2023-05-20T12:47:33;23.40;84.00
26081;DHT22;13991;51.174;4.438;2023-05-20T12:50:00;23.60;83.70
26081;DHT22;13991;51.174;4.438;2023-05-20T12:52:28;23.80;81.30
26081;DHT22;13991;51.174;4.438;2023-05-20T12:54:54;23.70;81.80
26081;DHT22;13991;51.174;4.438;2023-05-20T12:57:20;23.50;83.20
26081;DHT22;13991;51.174;4.438;2023-05-20T12:59:46;23.60;83.00
26081;DHT22;13991;51.174;4.438;2023-05-20T13:02:12;23.70;82.40
26081;DHT22;13991;51.174;4.438;2023-05-20T13:04:38;23.70;81.90
26081;DHT22;13991;51.174;4.438;2023-05-20T13:07:04;23.70;81.50
26081;DHT22;13991;51.174;4.438;2023-05-20T13:09:30;23.70;82.80
26081;DHT22;13991;51.174;4.438;2023-05-20T13:11:57;23.60;82.00
26081;DHT22;13991;51.174;4.438;2023-05-20T13:14:24;23.70;83.50
26081;DHT22;13991;51.174;4.438;2023-05-20T13:16:51;23.60;81.20
26081;DHT22;13991;51.174;4.438;2023-05-20T13:19:20;23.70;80.90
26081;DHT22;13991;51.174;4.438;2023-05-20T13:21:47;23.70;80.40
26081;DHT22;13991;51.174;4.438;2023-05-20T13:24:14;23.80;80.50
26081;DHT22;13991;51.174;4.438;2023-05-20T13:26:39;24.00;80.20
26081;DHT22;13991;51.174;4.438;2023-05-20T13:29:05;24.00;80.70
26081;DHT22;13991;51.174;4.438;2023-05-20T13:31:31;24.10;80.90
26081;DHT22;13991;51.174;4.438;2023-05-20T13:33:57;24.30;79.70
26081;DHT22;13991;51.174;4.438;2023-05-20T13:36:25;24.40;78.60
26081;DHT22;13991;51.174;4.438;2023-05-20T13:38:51;24.30;78.80
26081;DHT22;13991;51.174;4.438;2023-05-20T13:41:17;24.20;79.20
26081;DHT22;13991;51.174;4.438;2023-05-20T13:43:43;24.20;79.60
26081;DHT22;13991;51.174;4.438;2023-05-20T13:46:09;24.10;79.70
26081;DHT22;13991;51.174;4.438;2023-05-20T13:48:34;23.80;80.50
26081;DHT22;13991;51.174;4.438;2023-05-20T13:51:00;23.70;81.00
26081;DHT22;13991;51.174;4.438;2023-05-20T13:53:27;23.60;81.60
26081;DHT22;13991;51.174;4.438;2023-05-20T13:55:53;23.70;80.80
26081;DHT22;13991;51.174;4.438;2023-05-20T13:58:18;23.90;80.60
26081;DHT22;13991;51.174;4.438;2023-05-20T14:00:44;24.00;81.50
26081;DHT22;13991;51.174;4.438;2023-05-20T14:03:10;24.10;80.70
26081;DHT22;13991;51.174;4.438;2023-05-20T14:05:36;24.20;80.00
26081;DHT22;13991;51.174;4.438;2023-05-20T14:08:02;24.30;81.60
26081;DHT22;13991;51.174;4.438;2023-05-20T14:10:27;24.10;81.40
26081;DHT22;13991;51.174;4.438;2023-05-20T14:12:56;24.30;81.00
26081;DHT22;13991;51.174;4.438;2023-05-20T14:15:22;24.10;80.30
26081;DHT22;13991;51.174;4.438;2023-05-20T14:17:48;24.10;80.50
26081;DHT22;13991;51.174;4.438;2023-05-20T14:20:14;24.00;79.00
26081;DHT22;13991;51.174;4.438;2023-05-20T14:22:40;24.00;80.40
26081;DHT22;13991;51.174;4.438;2023-05-20T14:25:06;24.20;80.10
26081;DHT22;13991;51.174;4.438;2023-05-20T14:27:32;24.30;80.00
26081;DHT22;13991;51.174;4.438;2023-05-20T14:30:00;24.40;81.50
26081;DHT22;13991;51.174;4.438;2023-05-20T14:32:26;24.30;79.10
26081;DHT22;13991;51.174;4.438;2023-05-20T14:34:52;23.90;80.70
26081;DHT22;13991;51.174;4.438;2023-05-20T14:37:18;23.70;80.70
26081;DHT22;13991;51.174;4.438;2023-05-20T14:39:44;23.70;82.20
26081;DHT22;13991;51.174;4.438;2023-05-20T14:42:10;23.80;82.20
26081;DHT22;13991;51.174;4.438;2023-05-20T14:44:36;23.80;81.80
26081;DHT22;13991;51.174;4.438;2023-05-20T14:47:02;23.90;80.50
26081;DHT22;13991;51.174;4.438;2023-05-20T14:49:29;24.00;80.10
26081;DHT22;13991;51.174;4.438;2023-05-20T14:51:55;24.00;79.70
26081;DHT22;13991;51.174;4.438;2023-05-20T14:54:21;24.10;79.70
26081;DHT22;13991;51.174;4.438;2023-05-20T14:56:53;24.00;81.10
26081;DHT22;13991;51.174;4.438;2023-05-20T14:59:18;24.20;80.20
26081;DHT22;13991;51.174;4.438;2023-05-20T15:01:44;24.10;79.10
26081;DHT22;13991;51.174;4.438;2023-05-20T15:04:10;23.90;79.30
26081;DHT22;13991;51.174;4.438;2023-05-20T15:06:36;23.70;80.20
26081;DHT22;13991;51.174;4.438;2023-05-20T15:09:03;23.60;80.80
26081;DHT22;13991;51.174;4.438;2023-05-20T15:11:29;23.60;80.90
26081;DHT22;13991;51.174;4.438;2023-05-20T15:13:55;23.50;82.30
26081;DHT22;13991;51.174;4.438;2023-05-20T15:16:20;23.40;82.50
26081;DHT22;13991;51.174;4.438;2023-05-20T15:18:49;23.40;81.90
26081;DHT22;13991;51.174;4.438;2023-05-20T15:21:15;23.30;83.50
26081;DHT22;13991;51.174;4.438;2023-05-20T15:23:41;23.20;83.10
26081;DHT22;13991;51.174;4.438;2023-05-20T15:26:06;23.10;82.90
26081;DHT22;13991;51.174;4.438;2023-05-20T15:28:36;23.10;83.30
26081;DHT22;13991;51.174;4.438;2023-05-20T15:31:02;23.10;83.00
26081;DHT22;13991;51.174;4.438;2023-05-20T15:33:28;23.00;83.40
26081;DHT22;13991;51.174;4.438;2023-05-20T15:35:54;23.10;84.30
26081;DHT22;13991;51.174;4.438;2023-05-20T15:38:19;23.00;82.70
26081;DHT22;13991;51.174;4.438;2023-05-20T15:40:45;22.90;83.80
26081;DHT22;13991;51.174;4.438;2023-05-20T15:43:11;22.70;85.20
26081;DHT22;13991;51.174;4.438;2023-05-20T15:45:37;22.90;83.90
26081;DHT22;13991;51.174;4.438;2023-05-20T15:48:03;23.00;83.60
26081;DHT22;13991;51.174;4.438;2023-05-20T15:50:29;23.00;83.70
26081;DHT22;13991;51.174;4.438;2023-05-20T15:52:54;22.90;84.10
26081;DHT22;13991;51.174;4.438;2023-05-20T15:55:20;22.90;84.30
26081;DHT22;13991;51.174;4.438;2023-05-20T15:57:49;22.90;84.80
26081;DHT22;13991;51.174;4.438;2023-05-20T16:00:17;22.90;84.40
26081;DHT22;13991;51.174;4.438;2023-05-20T16:02:43;22.90;84.70
26081;DHT22;13991;51.174;4.438;2023-05-20T16:05:09;22.80;85.50
26081;DHT22;13991;51.174;4.438;2023-05-20T16:07:34;22.80;86.10